Time;durP1;ratioP1;P1;durP2;ratioP2;P2;SDS_P1;SDS_P2;PMS_P1;PMS_P2;Temp;Humidity;BMP_temperature;BMP_pressure;BME280_temperature;BME280_humidity;BME280_pressure;Samples;Min_cycle;Max_cycle;Signal;HPM_P1;HPM_P2
2022/12/31 00:00:35;;;;;;;0.90;0.50;;;;;;;;;;5055389;28;20404;-81
2022/12/31 00:03:01;;;;;;;0.63;0.50;;;;;;;;;;5054378;28;20499;-82
2022/12/31 00:05:30;;;;;;;0.50;0.40;;;;;;;;;;5055810;28;20415;-81
2022/12/31 00:07:56;;;;;;;2.13;0.60;;;;;;;;;;5054083;28;20543;-81
2022/12/31 00:10:22;;;;;;;0.70;0.43;;;;;;;;;;5055177;28;20459;-82
2022/12/31 00:12:48;;;;;;;0.60;0.50;;;;;;;;;;5037029;28;20420;-87
2022/12/31 00:15:14;;;;;;;0.70;0.50;;;;;;;;;;5052913;28;20408;-81
2022/12/31 00:17:40;;;;;;;0.50;0.40;;;;;;;;;;5055217;28;20404;-80
2022/12/31 00:20:06;;;;;;;4.13;0.70;;;;;;;;;;5054894;28;20401;-81
2022/12/31 00:22:32;;;;;;;0.70;0.40;;;;;;;;;;5054345;28;20408;-81
2022/12/31 00:24:58;;;;;;;1.50;0.50;;;;;;;;;;5055345;28;20408;-80
2022/12/31 00:27:24;;;;;;;1.63;0.50;;;;;;;;;;5054092;28;20408;-81
2022/12/31 00:29:51;;;;;;;0.80;0.50;;;;;;;;;;5052758;28;20526;-85
2022/12/31 00:32:17;;;;;;;0.60;0.50;;;;;;;;;;5052801;28;20420;-80
2022/12/31 00:34:43;;;;;;;0.60;0.50;;;;;;;;;;5055195;28;20493;-81
2022/12/31 00:37:09;;;;;;;1.53;0.40;;;;;;;;;;5052386;28;21328;-81
2022/12/31 00:39:35;;;;;;;0.60;0.50;;;;;;;;;;5036288;28;20431;-81
2022/12/31 00:42:01;;;;;;;0.50;0.40;;;;;;;;;;5053211;28;20424;-81
2022/12/31 00:44:27;;;;;;;1.00;0.50;;;;;;;;;;5053513;28;20462;-80
2022/12/31 00:46:53;;;;;;;0.60;0.40;;;;;;;;;;5053205;28;20431;-80
2022/12/31 00:49:19;;;;;;;0.63;0.50;;;;;;;;;;5053634;28;20412;-81
2022/12/31 00:51:46;;;;;;;0.60;0.40;;;;;;;;;;5053842;28;20408;-80
2022/12/31 00:54:12;;;;;;;0.60;0.50;;;;;;;;;;5054427;28;20504;-80
2022/12/31 00:56:38;;;;;;;0.60;0.50;;;;;;;;;;5053377;28;20459;-80
2022/12/31 00:59:04;;;;;;;0.60;0.40;;;;;;;;;;5054361;28;20489;-81
2022/12/31 01:01:35;;;;;;;0.50;0.40;;;;;;;;;;5054664;28;20411;-80
2022/12/31 01:04:02;;;;;;;0.70;0.50;;;;;;;;;;5054264;28;20436;-81
2022/12/31 01:06:28;;;;;;;0.50;0.40;;;;;;;;;;5054514;28;20404;-80
2022/12/31 01:08:55;;;;;;;0.60;0.43;;;;;;;;;;5052943;28;20896;-80
2022/12/31 01:11:21;;;;;;;0.60;0.40;;;;;;;;;;5054321;28;20514;-80
2022/12/31 01:13:54;;;;;;;0.60;0.40;;;;;;;;;;5053306;28;20511;-81
2022/12/31 01:16:22;;;;;;;0.77;0.50;;;;;;;;;;5052919;28;20469;-80
2022/12/31 01:18:48;;;;;;;0.60;0.40;;;;;;;;;;5053019;28;20781;-80
2022/12/31 01:21:14;;;;;;;1.43;0.40;;;;;;;;;;5052909;28;20503;-81
2022/12/31 01:23:41;;;;;;;0.60;0.43;;;;;;;;;;5054114;28;20409;-80
2022/12/31 01:26:08;;;;;;;0.60;0.40;;;;;;;;;;5053859;28;20802;-81
2022/12/31 01:28:35;;;;;;;0.57;0.40;;;;;;;;;;5054426;28;20779;-80
2022/12/31 01:31:05;;;;;;;1.63;0.43;;;;;;;;;;5052688;28;20412;-80
2022/12/31 01:33:31;;;;;;;0.60;0.50;;;;;;;;;;5053958;28;20404;-80
2022/12/31 01:36:01;;;;;;;0.70;0.50;;;;;;;;;;5052947;28;20867;-80
2022/12/31 01:38:27;;;;;;;0.50;0.40;;;;;;;;;;5054585;28;20427;-80
2022/12/31 01:40:53;;;;;;;0.50;0.40;;;;;;;;;;5053811;28;20427;-85
2022/12/31 01:43:20;;;;;;;0.50;0.40;;;;;;;;;;5054367;28;20408;-80
2022/12/31 01:45:47;;;;;;;0.50;0.40;;;;;;;;;;5036465;28;20930;-80
2022/12/31 01:48:15;;;;;;;0.60;0.40;;;;;;;;;;5054261;28;20404;-80
2022/12/31 01:50:41;;;;;;;0.50;0.40;;;;;;;;;;5056168;28;20407;-80
2022/12/31 01:53:08;;;;;;;1.07;0.97;;;;;;;;;;5056056;28;20473;-81
2022/12/31 01:55:37;;;;;;;1.33;0.40;;;;;;;;;;5057460;28;20463;-78
2022/12/31 01:58:11;;;;;;;0.50;0.40;;;;;;;;;;5057629;28;20459;-83
2022/12/31 02:00:37;;;;;;;0.50;0.37;;;;;;;;;;5056907;28;20399;-79
2022/12/31 02:03:04;;;;;;;0.50;0.40;;;;;;;;;;5039903;28;20416;-80
2022/12/31 02:05:37;;;;;;;0.73;0.40;;;;;;;;;;5056667;28;20494;-80
2022/12/31 02:08:04;;;;;;;0.63;0.50;;;;;;;;;;5056418;28;20781;-78
2022/12/31 02:10:31;;;;;;;0.50;0.40;;;;;;;;;;5055060;28;20467;-81
2022/12/31 02:12:57;;;;;;;0.50;0.40;;;;;;;;;;5052310;28;20507;-82
2022/12/31 02:15:30;;;;;;;0.60;0.40;;;;;;;;;;5052429;28;20424;-79
2022/12/31 02:18:01;;;;;;;2.40;0.50;;;;;;;;;;5053490;28;20396;-81
2022/12/31 02:20:39;;;;;;;0.70;0.50;;;;;;;;;;5058129;28;20848;-80
2022/12/31 02:23:24;;;;;;;0.50;0.40;;;;;;;;;;5056127;28;20421;-80
2022/12/31 02:26:08;;;;;;;0.50;0.40;;;;;;;;;;5057459;28;20399;-80
2022/12/31 02:28:43;;;;;;;0.50;0.40;;;;;;;;;;5056780;28;20457;-77
2022/12/31 02:31:42;;;;;;;0.70;0.50;;;;;;;;;;5057480;28;20868;-78
2022/12/31 02:34:11;;;;;;;0.50;0.40;;;;;;;;;;5034331;28;20495;-78
2022/12/31 02:36:40;;;;;;;0.83;0.60;;;;;;;;;;5057661;28;20455;-78
2022/12/31 02:39:07;;;;;;;0.67;0.50;;;;;;;;;;5056165;28;20419;-80
2022/12/31 02:41:52;;;;;;;0.60;0.40;;;;;;;;;;5053553;28;20473;-79
2022/12/31 02:44:25;;;;;;;0.50;0.40;;;;;;;;;;5051449;28;20419;-79
2022/12/31 02:47:07;;;;;;;0.60;0.40;;;;;;;;;;5055785;28;20429;-77
2022/12/31 02:49:33;;;;;;;0.60;0.50;;;;;;;;;;5055699;28;20424;-77
2022/12/31 02:52:08;;;;;;;0.87;0.40;;;;;;;;;;5056237;28;20399;-80
2022/12/31 02:54:43;;;;;;;0.57;0.43;;;;;;;;;;5057324;28;20438;-79
2022/12/31 02:57:15;;;;;;;0.60;0.40;;;;;;;;;;5056966;28;20779;-80
2022/12/31 03:02:36;;;;;;;0.60;0.50;;;;;;;;;;5056254;28;20918;-78
2022/12/31 03:05:02;;;;;;;3.27;0.70;;;;;;;;;;5038839;28;20424;-79
2022/12/31 03:07:30;;;;;;;0.90;0.60;;;;;;;;;;5056014;28;20428;-79
2022/12/31 03:09:57;;;;;;;0.60;0.40;;;;;;;;;;5055073;28;20883;-77
2022/12/31 03:15:20;;;;;;;1.17;0.50;;;;;;;;;;5056549;28;20383;-79
2022/12/31 03:18:06;;;;;;;0.50;0.40;;;;;;;;;;5056977;28;20756;-80
2022/12/31 03:23:23;;;;;;;0.60;0.40;;;;;;;;;;5056805;28;20439;-78
2022/12/31 03:25:49;;;;;;;1.20;0.57;;;;;;;;;;5055466;28;20420;-77
2022/12/31 03:28:17;;;;;;;0.60;0.50;;;;;;;;;;5056436;28;20400;-77
2022/12/31 03:30:44;;;;;;;0.50;0.40;;;;;;;;;;5056368;28;20416;-79
2022/12/31 03:33:10;;;;;;;0.50;0.40;;;;;;;;;;5054722;28;20416;-79
2022/12/31 03:35:36;;;;;;;1.80;0.40;;;;;;;;;;5054852;28;20460;-78
2022/12/31 03:38:03;;;;;;;0.70;0.40;;;;;;;;;;5054597;28;20419;-78
2022/12/31 03:40:30;;;;;;;1.13;0.50;;;;;;;;;;5054720;28;20427;-78
2022/12/31 03:42:56;;;;;;;1.80;0.50;;;;;;;;;;5054910;28;20412;-78
2022/12/31 03:45:22;;;;;;;0.70;0.50;;;;;;;;;;5054664;28;20471;-78
2022/12/31 03:47:48;;;;;;;0.60;0.40;;;;;;;;;;5056247;28;20404;-79
2022/12/31 03:50:15;;;;;;;0.80;0.43;;;;;;;;;;5038347;28;20450;-79
2022/12/31 03:52:41;;;;;;;0.60;0.40;;;;;;;;;;5055260;28;20431;-79
2022/12/31 03:55:08;;;;;;;1.00;0.50;;;;;;;;;;5054906;28;20466;-78
2022/12/31 03:57:34;;;;;;;0.77;0.40;;;;;;;;;;5056271;28;20460;-77
2022/12/31 04:00:00;;;;;;;1.10;0.50;;;;;;;;;;5038616;28;20419;-78
2022/12/31 04:02:26;;;;;;;0.50;0.40;;;;;;;;;;5056065;28;20453;-78
2022/12/31 04:04:52;;;;;;;1.73;0.43;;;;;;;;;;5054786;28;20436;-78
2022/12/31 04:07:18;;;;;;;0.60;0.50;;;;;;;;;;5054499;28;20420;-79
2022/12/31 04:09:44;;;;;;;1.27;0.60;;;;;;;;;;5037513;28;20468;-78
2022/12/31 04:12:10;;;;;;;0.73;0.50;;;;;;;;;;5037129;28;20463;-79
2022/12/31 04:14:37;;;;;;;0.70;0.53;;;;;;;;;;5054074;28;20457;-78
2022/12/31 04:17:03;;;;;;;0.73;0.50;;;;;;;;;;5054261;28;20471;-81
2022/12/31 04:19:29;;;;;;;1.00;0.40;;;;;;;;;;5054591;28;20408;-79
2022/12/31 04:21:55;;;;;;;1.00;0.50;;;;;;;;;;5055359;28;20405;-79
2022/12/31 04:24:21;;;;;;;0.67;0.50;;;;;;;;;;5054269;28;20762;-80
2022/12/31 04:26:47;;;;;;;1.03;0.50;;;;;;;;;;5055818;28;20423;-78
2022/12/31 04:29:13;;;;;;;0.73;0.47;;;;;;;;;;5054116;28;20412;-79
2022/12/31 04:31:39;;;;;;;0.80;0.50;;;;;;;;;;5055539;28;20458;-79
2022/12/31 04:34:05;;;;;;;0.90;0.50;;;;;;;;;;5055313;28;20772;-79
2022/12/31 04:36:32;;;;;;;0.60;0.40;;;;;;;;;;5054132;28;20464;-79
2022/12/31 04:38:58;;;;;;;0.97;0.47;;;;;;;;;;5054826;28;20802;-77
2022/12/31 04:41:25;;;;;;;1.17;0.60;;;;;;;;;;5054144;28;20435;-78
2022/12/31 04:43:56;;;;;;;1.07;0.50;;;;;;;;;;5054479;28;20766;-79
2022/12/31 04:46:26;;;;;;;2.40;0.50;;;;;;;;;;5055062;28;20491;-77
2022/12/31 04:48:53;;;;;;;1.03;0.60;;;;;;;;;;5054959;28;20412;-78
2022/12/31 04:51:19;;;;;;;0.70;0.50;;;;;;;;;;5053589;28;20416;-78
2022/12/31 04:53:45;;;;;;;0.60;0.60;;;;;;;;;;5054077;28;20390;-78
2022/12/31 04:56:11;;;;;;;0.80;0.50;;;;;;;;;;5054257;28;20471;-79
2022/12/31 04:58:38;;;;;;;0.60;0.50;;;;;;;;;;5053760;28;20412;-79
2022/12/31 05:01:05;;;;;;;0.77;0.50;;;;;;;;;;5054384;28;20427;-79
2022/12/31 05:03:31;;;;;;;1.50;0.63;;;;;;;;;;5053871;28;20424;-77
2022/12/31 05:06:04;;;;;;;1.17;0.60;;;;;;;;;;5053504;28;20418;-77
2022/12/31 05:08:31;;;;;;;1.50;0.57;;;;;;;;;;5054374;28;20951;-78
2022/12/31 05:10:57;;;;;;;1.93;0.60;;;;;;;;;;5054632;28;20774;-78
2022/12/31 05:13:23;;;;;;;1.60;0.70;;;;;;;;;;5053288;28;20824;-78
2022/12/31 05:15:49;;;;;;;0.97;0.53;;;;;;;;;;5054813;28;20455;-77
2022/12/31 05:18:15;;;;;;;1.07;0.60;;;;;;;;;;5054706;28;20492;-78
2022/12/31 05:20:41;;;;;;;1.33;0.53;;;;;;;;;;5053525;28;20477;-78
2022/12/31 05:23:08;;;;;;;3.80;0.70;;;;;;;;;;5053307;28;20793;-80
2022/12/31 05:25:34;;;;;;;1.23;0.60;;;;;;;;;;5053167;28;20416;-78
2022/12/31 05:28:00;;;;;;;1.13;0.70;;;;;;;;;;5053900;28;20574;-79
2022/12/31 05:30:26;;;;;;;2.20;0.60;;;;;;;;;;5054427;28;20435;-79
2022/12/31 05:32:52;;;;;;;1.00;0.60;;;;;;;;;;5037480;28;20798;-78
2022/12/31 05:35:18;;;;;;;1.57;0.50;;;;;;;;;;5036475;28;20431;-78
2022/12/31 05:37:45;;;;;;;0.90;0.67;;;;;;;;;;5054807;28;20443;-78
2022/12/31 05:40:11;;;;;;;1.00;0.63;;;;;;;;;;5054729;28;20419;-78
2022/12/31 05:42:37;;;;;;;2.37;0.80;;;;;;;;;;5053425;28;20494;-78
2022/12/31 05:45:04;;;;;;;5.37;0.57;;;;;;;;;;5055019;28;20403;-78
2022/12/31 05:47:30;;;;;;;0.97;0.60;;;;;;;;;;5052972;28;20777;-78
2022/12/31 05:49:56;;;;;;;1.43;0.60;;;;;;;;;;5055046;28;20774;-78
2022/12/31 05:52:22;;;;;;;1.53;0.70;;;;;;;;;;5054274;28;20389;-79
2022/12/31 05:54:48;;;;;;;2.60;0.80;;;;;;;;;;5053331;28;20383;-78
2022/12/31 05:57:14;;;;;;;0.80;0.50;;;;;;;;;;5053071;28;20487;-78
2022/12/31 05:59:40;;;;;;;1.73;0.50;;;;;;;;;;5054461;28;20404;-79
2022/12/31 06:02:06;;;;;;;1.50;0.80;;;;;;;;;;5054600;28;20734;-79
2022/12/31 06:04:32;;;;;;;0.60;0.50;;;;;;;;;;5054349;28;20391;-79
2022/12/31 06:06:58;;;;;;;1.33;0.60;;;;;;;;;;5049472;28;20416;-81
2022/12/31 06:09:24;;;;;;;1.37;0.70;;;;;;;;;;5047724;28;20470;-81
2022/12/31 06:11:50;;;;;;;2.70;0.70;;;;;;;;;;5049286;28;20519;-80
2022/12/31 06:14:17;;;;;;;1.90;0.63;;;;;;;;;;5046704;28;20395;-80
2022/12/31 06:16:43;;;;;;;2.20;0.60;;;;;;;;;;5052107;28;20448;-78
2022/12/31 06:19:09;;;;;;;1.17;0.60;;;;;;;;;;5053205;28;20420;-79
2022/12/31 06:21:35;;;;;;;0.70;0.60;;;;;;;;;;5054273;28;20457;-78
2022/12/31 06:24:01;;;;;;;1.30;0.70;;;;;;;;;;5053354;28;20469;-78
2022/12/31 06:26:27;;;;;;;1.70;0.70;;;;;;;;;;5052938;28;20792;-78
2022/12/31 06:28:53;;;;;;;2.83;0.60;;;;;;;;;;5053871;28;20454;-79
2022/12/31 06:31:20;;;;;;;0.90;0.60;;;;;;;;;;5052705;28;20412;-78
2022/12/31 06:33:46;;;;;;;1.20;0.70;;;;;;;;;;5053109;28;20530;-78
2022/12/31 06:36:13;;;;;;;2.10;0.70;;;;;;;;;;5056024;28;20700;-79
2022/12/31 06:38:40;;;;;;;1.53;0.63;;;;;;;;;;5057931;28;20400;-78
2022/12/31 06:41:08;;;;;;;1.57;0.80;;;;;;;;;;5055904;28;20408;-82
2022/12/31 06:43:35;;;;;;;0.70;0.50;;;;;;;;;;5051138;28;20431;-79
2022/12/31 06:46:04;;;;;;;2.73;0.80;;;;;;;;;;5052072;28;20455;-79
2022/12/31 06:48:30;;;;;;;0.70;0.60;;;;;;;;;;5053198;28;20423;-78
2022/12/31 06:50:57;;;;;;;1.53;0.70;;;;;;;;;;5053454;28;20404;-78
2022/12/31 06:53:23;;;;;;;1.00;0.70;;;;;;;;;;5055424;28;20415;-79
2022/12/31 06:55:49;;;;;;;2.20;0.73;;;;;;;;;;5055168;28;20993;-78
2022/12/31 06:58:16;;;;;;;2.30;0.80;;;;;;;;;;5057002;28;20427;-79
2022/12/31 07:01:02;;;;;;;2.23;0.70;;;;;;;;;;5056165;28;20415;-78
2022/12/31 07:03:37;;;;;;;2.33;0.80;;;;;;;;;;5052388;28;20467;-77
2022/12/31 07:06:06;;;;;;;1.00;0.70;;;;;;;;;;5056213;28;20609;-77
2022/12/31 07:08:35;;;;;;;1.77;0.90;;;;;;;;;;5056495;28;20471;-77
2022/12/31 07:11:01;;;;;;;0.90;0.50;;;;;;;;;;5057247;28;20424;-77
2022/12/31 07:13:45;;;;;;;0.63;0.50;;;;;;;;;;5056933;28;20954;-79
2022/12/31 07:16:30;;;;;;;1.47;1.13;;;;;;;;;;5056238;28;20894;-77
2022/12/31 07:18:56;;;;;;;1.27;0.70;;;;;;;;;;5056737;28;20404;-77
2022/12/31 07:21:34;;;;;;;3.00;0.70;;;;;;;;;;5055431;28;20402;-78
2022/12/31 07:24:00;;;;;;;0.90;0.50;;;;;;;;;;5056993;28;20370;-78
2022/12/31 07:27:05;;;;;;;0.87;0.70;;;;;;;;;;5038663;28;20420;-79
2022/12/31 07:29:34;;;;;;;3.80;0.80;;;;;;;;;;5034314;28;20412;-79
2022/12/31 07:32:03;;;;;;;2.20;0.67;;;;;;;;;;5034732;28;20425;-78
2022/12/31 07:34:48;;;;;;;1.60;0.70;;;;;;;;;;5034784;28;20920;-79
2022/12/31 07:37:19;;;;;;;3.10;0.70;;;;;;;;;;5056171;28;20517;-81
2022/12/31 07:40:08;;;;;;;0.73;0.50;;;;;;;;;;5055106;28;20926;-78
2022/12/31 07:42:42;;;;;;;1.97;1.07;;;;;;;;;;5054254;28;20424;-78
2022/12/31 07:45:11;;;;;;;3.33;0.80;;;;;;;;;;5056228;28;20745;-79
2022/12/31 07:47:38;;;;;;;1.33;0.93;;;;;;;;;;5055214;28;20423;-78
2022/12/31 07:50:04;;;;;;;3.63;0.77;;;;;;;;;;5056186;28;20434;-78
2022/12/31 07:52:31;;;;;;;1.13;0.70;;;;;;;;;;5038200;28;20424;-78
2022/12/31 07:54:57;;;;;;;2.70;0.73;;;;;;;;;;5056893;28;20385;-78
2022/12/31 07:57:25;;;;;;;1.13;0.87;;;;;;;;;;5055730;28;20449;-77
2022/12/31 08:00:11;;;;;;;2.27;0.67;;;;;;;;;;5056604;28;20387;-78
2022/12/31 08:02:56;;;;;;;1.50;1.07;;;;;;;;;;5055364;28;20456;-78
2022/12/31 08:05:25;;;;;;;1.40;0.63;;;;;;;;;;5054678;28;20813;-77
2022/12/31 08:08:03;;;;;;;2.10;0.70;;;;;;;;;;5056268;28;20408;-77
2022/12/31 08:10:38;;;;;;;1.43;0.80;;;;;;;;;;5055672;28;20474;-77
2022/12/31 08:13:05;;;;;;;2.03;0.80;;;;;;;;;;5055448;28;20896;-77
2022/12/31 08:15:32;;;;;;;1.30;0.70;;;;;;;;;;5055696;28;20400;-78
2022/12/31 08:17:58;;;;;;;1.70;0.90;;;;;;;;;;5054114;28;20428;-77
2022/12/31 08:20:25;;;;;;;2.00;1.00;;;;;;;;;;5055513;28;20400;-78
2022/12/31 08:22:51;;;;;;;1.90;0.70;;;;;;;;;;5055321;28;20953;-77
2022/12/31 08:25:17;;;;;;;3.43;0.70;;;;;;;;;;5054577;28;20412;-80
2022/12/31 08:27:43;;;;;;;2.70;0.90;;;;;;;;;;5054468;28;20944;-78
2022/12/31 08:30:17;;;;;;;0.70;0.60;;;;;;;;;;5054525;28;20771;-78
2022/12/31 08:33:02;;;;;;;4.10;0.87;;;;;;;;;;5054685;28;20431;-78
2022/12/31 08:35:43;;;;;;;3.07;0.80;;;;;;;;;;5054744;28;20400;-79
2022/12/31 08:38:17;;;;;;;0.80;0.70;;;;;;;;;;5055740;28;20415;-79
2022/12/31 08:40:49;;;;;;;0.90;0.70;;;;;;;;;;5055161;28;20420;-81
2022/12/31 08:43:32;;;;;;;3.47;0.67;;;;;;;;;;5053579;28;20926;-79
2022/12/31 08:45:59;;;;;;;1.40;0.90;;;;;;;;;;5054573;28;20911;-79
2022/12/31 08:48:29;;;;;;;1.67;0.80;;;;;;;;;;5054615;28;20531;-79
2022/12/31 08:50:55;;;;;;;2.00;0.83;;;;;;;;;;5054795;28;20463;-81
2022/12/31 08:53:21;;;;;;;1.00;0.70;;;;;;;;;;5053274;28;20416;-79
2022/12/31 08:55:49;;;;;;;1.30;0.80;;;;;;;;;;5055342;28;20549;-78
2022/12/31 08:58:24;;;;;;;1.83;0.80;;;;;;;;;;5055023;28;20404;-79
2022/12/31 09:00:52;;;;;;;1.73;1.00;;;;;;;;;;5055429;28;20454;-80
2022/12/31 09:03:22;;;;;;;1.40;0.60;;;;;;;;;;5055307;28;20400;-80
2022/12/31 09:06:07;;;;;;;3.03;1.33;;;;;;;;;;5053341;28;20462;-81
2022/12/31 09:08:41;;;;;;;3.07;1.33;;;;;;;;;;5053840;28;20459;-81
2022/12/31 09:11:12;;;;;;;4.97;0.87;;;;;;;;;;5052816;28;20879;-80
2022/12/31 09:13:53;;;;;;;1.33;0.80;;;;;;;;;;5052902;28;20829;-83
2022/12/31 09:16:31;;;;;;;2.73;0.70;;;;;;;;;;5054032;28;20460;-80
2022/12/31 09:18:57;;;;;;;1.83;0.97;;;;;;;;;;5053990;28;20416;-80
2022/12/31 09:21:23;;;;;;;1.37;0.77;;;;;;;;;;5052216;28;20404;-79
2022/12/31 09:23:49;;;;;;;3.00;1.00;;;;;;;;;;5054643;28;20414;-79
2022/12/31 09:26:43;;;;;;;1.70;1.17;;;;;;;;;;5052823;28;20428;-80
2022/12/31 09:29:19;;;;;;;1.90;0.97;;;;;;;;;;5052924;28;20403;-81
2022/12/31 09:31:52;;;;;;;2.47;0.70;;;;;;;;;;5054245;28;20407;-80
2022/12/31 09:34:29;;;;;;;4.30;0.90;;;18.20;99.90;;;;;;5052741;28;20440;-81
2022/12/31 09:37:01;;;;;;;1.00;0.70;;;18.20;99.90;;;;;;5052055;28;20448;-82
2022/12/31 09:39:39;;;;;;;1.33;0.90;;;18.10;99.90;;;;;;5054019;28;20400;-81
2022/12/31 09:42:39;;;;;;;1.87;1.17;;;18.10;99.90;;;;;;5054306;28;20458;-81
2022/12/31 09:45:27;;;;;;;1.77;0.90;;;18.10;99.90;;;;;;5052337;28;20444;-81
2022/12/31 09:48:34;;;;;;;6.53;1.43;;;18.10;99.90;;;;;;5053482;28;20416;-81
2022/12/31 09:51:19;;;;;;;4.77;1.10;;;18.10;99.90;;;;;;5046637;28;20416;-83
2022/12/31 09:54:12;;;;;;;2.40;1.00;;;18.00;99.90;;;;;;5053556;28;20733;-81
2022/12/31 09:57:03;;;;;;;2.70;0.93;;;18.00;99.90;;;;;;5051423;28;20435;-82
2022/12/31 09:59:53;;;;;;;2.70;1.13;;;18.00;99.90;;;;;;5053688;28;20439;-82
2022/12/31 10:02:37;;;;;;;4.10;0.80;;;18.00;99.90;;;;;;5051274;28;20416;-81
2022/12/31 10:05:17;;;;;;;2.77;0.90;;;18.00;99.90;;;;;;5050982;28;20398;-82
2022/12/31 10:07:52;;;;;;;1.17;0.93;;;18.00;99.90;;;;;;5054618;28;20424;-81
2022/12/31 10:10:21;;;;;;;2.33;1.00;;;18.00;99.90;;;;;;5073217;28;20482;-80
2022/12/31 10:13:05;;;;;;;4.20;1.07;;;18.00;99.90;;;;;;5076404;28;20435;-81
2022/12/31 10:16:02;;;;;;;4.10;1.10;;;18.00;99.90;;;;;;5075908;28;20411;-81
2022/12/31 10:18:42;;;;;;;1.50;0.77;;;18.00;99.90;;;;;;5076269;28;20415;-81
2022/12/31 10:21:29;;;;;;;2.73;1.60;;;18.00;99.90;;;;;;5077908;28;20461;-81
2022/12/31 10:24:32;;;;;;;1.63;0.77;;;18.00;99.90;;;;;;5077392;28;20369;-82
2022/12/31 10:27:38;;;;;;;4.53;0.90;;;18.00;99.90;;;;;;5075200;28;20533;-82
2022/12/31 10:35:19;;;;;;;3.40;1.30;;;18.10;99.90;;;;;;5684435;23;20469;-82
2022/12/31 10:38:23;;;;;;;3.57;1.20;;;18.10;99.90;;;;;;4977353;28;20433;-81
2022/12/31 10:41:10;;;;;;;2.97;1.20;;;18.10;99.90;;;;;;4979491;28;20434;-82
2022/12/31 10:43:52;;;;;;;1.90;0.93;;;18.10;99.90;;;;;;4979705;28;20489;-82
2022/12/31 10:46:50;;;;;;;2.50;1.30;;;18.20;99.90;;;;;;4997559;28;20418;-81
2022/12/31 10:49:34;;;;;;;5.03;1.57;;;18.20;99.90;;;;;;4975784;28;20462;-81
2022/12/31 10:52:21;;;;;;;1.77;1.00;;;18.20;99.90;;;;;;4980100;28;20418;-81
2022/12/31 10:55:18;;;;;;;1.07;0.90;;;18.10;99.90;;;;;;4979371;28;20426;-81
2022/12/31 10:57:58;;;;;;;1.00;0.80;;;18.10;99.90;;;;;;4979358;28;20450;-81
2022/12/31 11:00:33;;;;;;;2.80;1.13;;;18.20;99.90;;;;;;4979596;28;20437;-81
2022/12/31 11:03:17;;;;;;;3.03;1.00;;;18.20;99.90;;;;;;4979384;28;20464;-80
2022/12/31 11:06:41;;;;;;;2.40;1.00;;;18.20;99.90;;;;;;4979276;28;20413;-81
2022/12/31 11:09:28;;;;;;;3.40;0.97;;;18.20;99.90;;;;;;4937077;28;20422;-80
2022/12/31 11:12:24;;;;;;;1.70;1.03;;;18.20;99.90;;;;;;4979794;28;20419;-81
2022/12/31 11:15:21;;;;;;;2.13;1.10;;;18.20;99.90;;;;;;4996674;28;20469;-81
2022/12/31 11:18:16;;;;;;;3.13;1.17;;;18.30;99.90;;;;;;4979138;28;20448;-82
2022/12/31 11:21:07;;;;;;;3.17;1.20;;;18.30;99.90;;;;;;4996608;28;20826;-82
2022/12/31 11:23:50;;;;;;;4.23;2.40;;;18.40;99.90;;;;;;4978124;28;20741;-82
2022/12/31 11:26:40;;;;;;;3.70;1.90;;;18.50;99.90;;;;;;4979351;28;20423;-80
2022/12/31 11:29:12;;;;;;;5.40;1.23;;;;;;;;;;4978788;28;20415;-82
2022/12/31 11:31:45;;;;;;;5.33;1.27;;;;;;;;;;4996399;28;20392;-83
2022/12/31 11:34:30;;;;;;;2.90;1.30;;;;;;;;;;4996211;28;20400;-82
2022/12/31 11:37:17;;;;;;;2.67;1.63;;;;;;;;;;4979190;28;20521;-82
2022/12/31 11:39:49;;;;;;;2.47;1.33;;;;;;;;;;4995987;28;20486;-82
2022/12/31 11:42:18;;;;;;;5.13;2.27;;;;;;;;;;4996210;28;20738;-82
2022/12/31 11:44:44;;;;;;;1.20;0.63;;;;;;;;;;4978435;28;20774;-82
2022/12/31 11:47:25;;;;;;;0.93;0.83;;;;;;;;;;4995970;28;20382;-82
2022/12/31 11:50:28;;;;;;;2.47;1.07;;;18.30;99.90;;;;;;4978431;28;20411;-81
2022/12/31 11:53:22;;;;;;;1.77;1.00;;;18.20;99.90;;;;;;4975241;28;20426;-82
2022/12/31 11:56:21;;;;;;;1.00;0.80;;;18.20;99.90;;;;;;4995968;28;20389;-82
2022/12/31 11:58:55;;;;;;;2.60;0.97;;;18.20;99.90;;;;;;4995540;28;20392;-81
2022/12/31 12:01:29;;;;;;;1.60;1.10;;;18.30;99.90;;;;;;4978411;28;20393;-81
2022/12/31 12:03:55;;;;;;;2.30;1.20;;;18.30;99.90;;;;;;4978322;28;20498;-82
2022/12/31 12:06:31;;;;;;;2.23;1.10;;;18.30;99.90;;;;;;4978786;28;20548;-81
2022/12/31 12:09:29;;;;;;;2.50;1.00;;;18.40;99.90;;;;;;4978344;28;20181;-82
2022/12/31 12:12:01;;;;;;;3.43;1.47;;;18.40;99.90;;;;;;4995913;28;20446;-82
2022/12/31 12:14:35;;;;;;;2.67;1.20;;;;;;;;;;4995898;28;20374;-82
2022/12/31 12:17:02;;;;;;;1.90;0.97;;;18.40;99.90;;;;;;4978178;28;20601;-82
2022/12/31 12:19:31;;;;;;;2.80;1.20;;;18.50;99.90;;;;;;4962662;28;20783;-81
2022/12/31 12:21:57;;;;;;;3.27;1.03;;;18.50;99.90;;;;;;4978061;28;20475;-81
2022/12/31 12:24:29;;;;;;;2.50;1.10;;;18.50;99.90;;;;;;4995597;28;20438;-82
2022/12/31 12:26:56;;;;;;;2.00;0.80;;;18.50;99.90;;;;;;4995420;28;20424;-81
2022/12/31 12:29:33;;;;;;;5.53;1.23;;;18.60;99.90;;;;;;4995674;28;20423;-82
2022/12/31 12:32:02;;;;;;;4.93;1.43;;;18.60;99.90;;;;;;4978351;28;20414;-82
2022/12/31 12:34:29;;;;;;;3.13;1.10;;;18.60;99.90;;;;;;4994605;28;20915;-83
2022/12/31 12:36:55;;;;;;;2.97;1.00;;;18.50;99.90;;;;;;4995141;28;20487;-82
2022/12/31 12:39:24;;;;;;;1.43;1.20;;;18.50;99.90;;;;;;4962044;28;20412;-82
2022/12/31 12:42:12;;;;;;;1.77;1.00;;;18.50;99.90;;;;;;4977791;28;20411;-82
2022/12/31 12:44:40;;;;;;;1.10;0.73;;;18.50;99.90;;;;;;4977483;28;20418;-82
2022/12/31 12:47:11;;;;;;;2.07;1.00;;;18.60;99.90;;;;;;4977846;28;20433;-83
2022/12/31 12:49:43;;;;;;;1.50;0.80;;;18.60;99.90;;;;;;4995246;28;20387;-82
2022/12/31 12:52:36;;;;;;;1.63;1.10;;;18.50;99.90;;;;;;4994748;28;20422;-82
2022/12/31 12:55:15;;;;;;;1.90;0.90;;;18.40;99.90;;;;;;4977439;28;20419;-81
2022/12/31 12:58:18;;;;;;;4.83;1.20;;;18.40;99.90;;;;;;4977453;28;20590;-82
2022/12/31 13:01:05;;;;;;;2.77;1.20;;;18.40;99.90;;;;;;4977823;28;20451;-80
2022/12/31 13:03:37;;;;;;;2.20;0.83;;;;;;;;;;4995088;28;20729;-80
2022/12/31 13:06:08;;;;;;;4.00;1.43;;;18.40;99.90;;;;;;4994919;28;20444;-84
2022/12/31 13:09:01;;;;;;;3.83;0.90;;;18.30;99.90;;;;;;4992625;28;20453;-85
2022/12/31 13:11:44;;;;;;;4.13;1.00;;;18.30;99.90;;;;;;4992081;28;20462;-83
2022/12/31 13:14:33;;;;;;;1.93;1.50;;;18.10;99.90;;;;;;4994253;28;20437;-84
2022/12/31 13:17:30;;;;;;;8.20;1.20;;;17.90;99.90;;;;;;4979472;28;20481;-86
2022/12/31 13:20:21;;;;;;;3.47;1.07;;;17.70;99.90;;;;;;4991560;28;20434;-85
2022/12/31 13:23:04;;;;;;;4.10;1.43;;;17.40;99.90;;;;;;4975232;28;20923;-88
2022/12/31 13:25:54;;;;;;;3.20;1.40;;;17.10;99.90;;;;;;4993837;28;20482;-88
2022/12/31 13:28:22;;;;;;;2.23;1.33;;;;;;;;;;4994032;28;20430;-87
2022/12/31 13:30:53;;;;;;;2.03;1.30;;;16.60;99.90;;;;;;4993918;28;21048;-88
2022/12/31 13:33:28;;;;;;;2.13;1.20;;;16.50;99.90;;;;;;4994542;28;20809;-87
2022/12/31 13:35:58;;;;;;;3.33;1.30;;;16.50;99.90;;;;;;4993471;28;20519;-86
2022/12/31 13:38:27;;;;;;;3.50;1.37;;;16.50;99.90;;;;;;4975666;28;20435;-87
2022/12/31 13:41:01;;;;;;;6.80;1.60;;;16.40;99.90;;;;;;4987797;28;20430;-85
2022/12/31 13:43:42;;;;;;;3.10;1.20;;;16.30;99.90;;;;;;4990885;28;20429;-87
2022/12/31 13:46:26;;;;;;;2.00;1.60;;;16.20;99.90;;;;;;4991035;28;20433;-90
2022/12/31 13:49:03;;;;;;;9.50;3.97;;;16.10;99.90;;;;;;4980921;28;20427;-88
2022/12/31 13:51:41;;;;;;;5.23;1.23;;;16.00;99.90;;;;;;4981320;28;20414;-87
2022/12/31 13:54:25;;;;;;;2.57;1.13;;;15.90;99.90;;;;;;4993769;28;20530;-89
2022/12/31 13:56:53;;;;;;;2.30;1.30;;;15.80;99.90;;;;;;4997958;28;20556;-89
2022/12/31 13:59:21;;;;;;;2.20;1.33;;;;;;;;;;4998393;28;20411;-90
2022/12/31 14:02:05;;;;;;;4.90;1.40;;;15.70;99.90;;;;;;4980798;28;20414;-89
2022/12/31 14:07:33;;;;;;;5.17;1.50;;;15.50;99.90;;;;;;4979564;28;20471;-91
2022/12/31 14:09:59;;;;;;;3.03;1.70;;;15.40;99.90;;;;;;4939563;29;20792;-90
2022/12/31 14:12:36;;;;;;;5.03;1.20;;;15.40;99.90;;;;;;4948051;29;20483;-91
2022/12/31 14:15:24;;;;;;;2.63;1.73;;;15.30;99.90;;;;;;4944334;29;20172;-92
2022/12/31 14:18:09;;;;;;;2.90;1.80;;;15.30;99.90;;;;;;4946305;28;20463;-91
2022/12/31 14:20:48;;;;;;;1.87;1.20;;;15.30;99.90;;;;;;4963996;28;20459;-86
2022/12/31 14:23:32;;;;;;;5.63;1.40;;;15.40;99.90;;;;;;4978990;28;20431;-85
2022/12/31 14:26:10;;;;;;;3.77;1.40;;;15.40;99.90;;;;;;4979068;28;20484;-90
2022/12/31 14:28:40;;;;;;;3.37;1.40;;;15.50;99.90;;;;;;4985545;28;20396;-88
2022/12/31 14:31:27;;;;;;;4.53;1.37;;;15.50;99.90;;;;;;4962654;28;20416;-90
2022/12/31 14:34:12;;;;;;;4.10;1.90;;;15.50;99.90;;;;;;4980798;28;20415;-89
2022/12/31 14:36:44;;;;;;;3.03;1.27;;;15.50;99.90;;;;;;4979580;28;20529;-88
2022/12/31 14:39:34;;;;;;;2.20;1.23;;;15.60;99.90;;;;;;4961998;28;20442;-86
2022/12/31 14:42:28;;;;;;;3.33;1.00;;;15.60;99.90;;;;;;4962677;28;20423;-84
2022/12/31 14:45:16;;;;;;;2.80;1.40;;;15.60;99.90;;;;;;4965058;28;20494;-87
2022/12/31 14:48:15;;;;;;;2.47;1.20;;;15.60;99.90;;;;;;4963258;28;20863;-87
2022/12/31 14:50:44;;;;;;;2.50;1.40;;;15.60;99.90;;;;;;4979353;28;20442;-87
2022/12/31 14:53:24;;;;;;;2.90;1.10;;;15.70;99.90;;;;;;4963562;28;20426;-84
2022/12/31 14:56:05;;;;;;;2.90;1.83;;;15.80;99.90;;;;;;4981025;28;20868;-86